createdAt,value
2022-10-24T00:01:46.545Z,15.00
2022-10-24T00:04:14.295Z,15.00
2022-10-24T00:06:41.858Z,15.00
2022-10-24T00:09:09.671Z,15.00
2022-10-24T00:11:38.554Z,15.00
2022-10-24T00:14:06.074Z,14.90
2022-10-24T00:16:35.839Z,15.00
2022-10-24T00:19:03.816Z,14.90
2022-10-24T00:21:31.486Z,14.90
2022-10-24T00:23:59.300Z,15.00
2022-10-24T00:26:27.122Z,15.00
2022-10-24T00:28:55.067Z,14.90
2022-10-24T00:31:22.765Z,14.90
2022-10-24T00:33:51.116Z,14.80
2022-10-24T00:36:20.415Z,14.90
2022-10-24T00:38:51.872Z,14.80
2022-10-24T00:41:24.423Z,14.80
2022-10-24T00:44:12.520Z,14.80
2022-10-24T00:46:46.176Z,14.80
2022-10-24T00:49:15.075Z,14.80
2022-10-24T00:51:43.501Z,14.90
2022-10-24T00:54:12.354Z,14.90
2022-10-24T00:56:44.719Z,14.90
2022-10-24T00:59:12.881Z,15.00
2022-10-24T01:01:42.637Z,15.00
2022-10-24T01:04:13.512Z,15.10
2022-10-24T01:07:02.700Z,15.10
2022-10-24T01:09:36.480Z,15.10
2022-10-24T01:12:23.012Z,15.20
2022-10-24T01:14:54.919Z,15.20
2022-10-24T01:17:43.422Z,15.20
2022-10-24T01:20:20.113Z,15.20
2022-10-24T01:23:06.336Z,15.30
2022-10-24T01:25:38.457Z,15.30
2022-10-24T01:28:16.225Z,15.30
2022-10-24T01:30:45.766Z,15.30
2022-10-24T01:33:19.901Z,15.30
2022-10-24T01:36:00.749Z,15.40
2022-10-24T01:38:52.292Z,15.40
2022-10-24T01:41:23.154Z,15.40
2022-10-24T01:46:23.051Z,15.40
2022-10-24T01:48:55.253Z,15.30
2022-10-24T01:51:24.282Z,15.40
2022-10-24T01:53:52.263Z,15.40
2022-10-24T01:56:20.509Z,15.40
2022-10-24T01:58:48.311Z,15.40
2022-10-24T02:05:16.984Z,15.40
2022-10-24T02:07:51.198Z,15.40
2022-10-24T02:10:21.711Z,15.40
2022-10-24T02:12:52.224Z,15.40
2022-10-24T02:15:30.480Z,15.40
2022-10-24T02:18:02.220Z,15.50
2022-10-24T02:20:39.613Z,15.40
2022-10-24T02:23:26.214Z,15.40
2022-10-24T02:25:56.226Z,15.40
2022-10-24T02:28:25.302Z,15.40
2022-10-24T02:30:59.967Z,15.50
2022-10-24T02:33:28.805Z,15.50
2022-10-24T02:35:57.290Z,15.50
2022-10-24T02:38:33.031Z,15.50
2022-10-24T02:41:02.242Z,15.50
2022-10-24T02:43:30.607Z,15.40
2022-10-24T02:45:58.870Z,15.40
2022-10-24T02:48:36.308Z,15.40
2022-10-24T02:51:04.846Z,15.40
2022-10-24T02:53:35.075Z,15.30
2022-10-24T02:56:03.027Z,15.30
2022-10-24T02:58:30.389Z,15.30
2022-10-24T03:00:58.240Z,15.30
2022-10-24T03:03:26.011Z,15.30
2022-10-24T03:05:54.431Z,15.30
2022-10-24T03:08:21.961Z,15.40
2022-10-24T03:10:49.450Z,15.40
2022-10-24T03:13:17.214Z,15.40
2022-10-24T03:15:45.102Z,15.30
2022-10-24T03:18:12.864Z,15.30
2022-10-24T03:20:41.503Z,15.30
2022-10-24T03:23:09.537Z,15.30
2022-10-24T03:25:37.257Z,15.30
2022-10-24T03:28:12.907Z,15.20
2022-10-24T03:30:40.439Z,15.20
2022-10-24T03:33:08.156Z,15.20
2022-10-24T03:35:37.335Z,15.10
2022-10-24T03:38:08.293Z,15.20
2022-10-24T03:40:37.174Z,15.10
2022-10-24T03:43:06.301Z,15.10
2022-10-24T03:45:34.105Z,15.10
2022-10-24T03:48:09.620Z,15.10
2022-10-24T03:50:37.593Z,15.00
2022-10-24T03:53:09.007Z,15.00
2022-10-24T03:55:36.999Z,14.90
2022-10-24T03:58:06.801Z,14.90
2022-10-24T04:00:39.461Z,14.90
2022-10-24T04:03:10.870Z,14.90
2022-10-24T04:08:06.991Z,14.80
2022-10-24T04:10:35.999Z,14.90
2022-10-24T04:13:03.662Z,14.90
2022-10-24T04:15:31.480Z,15.00
2022-10-24T04:17:59.315Z,15.10
2022-10-24T04:20:27.415Z,15.00
2022-10-24T04:22:54.912Z,15.10
2022-10-24T04:25:22.426Z,15.10
2022-10-24T04:27:50.097Z,15.10
2022-10-24T04:30:17.661Z,15.10
2022-10-24T04:32:52.464Z,15.10
2022-10-24T04:35:20.035Z,15.20
2022-10-24T04:37:51.841Z,15.10
2022-10-24T04:40:19.570Z,15.10
2022-10-24T04:42:50.523Z,15.10
2022-10-24T04:45:18.075Z,15.00
2022-10-24T04:47:46.292Z,15.00
2022-10-24T04:50:13.885Z,15.00
2022-10-24T04:52:41.633Z,15.00
2022-10-24T04:55:09.778Z,15.00
2022-10-24T04:57:38.997Z,15.00
2022-10-24T05:00:07.070Z,15.00
2022-10-24T05:02:35.106Z,14.90
2022-10-24T05:05:02.628Z,14.90
2022-10-24T05:07:30.272Z,14.90
2022-10-24T05:09:58.289Z,14.90
2022-10-24T05:12:26.058Z,14.90
2022-10-24T05:14:53.821Z,14.90
2022-10-24T05:17:21.873Z,14.80
2022-10-24T05:19:49.520Z,14.80
2022-10-24T05:22:17.709Z,14.80
2022-10-24T05:24:48.351Z,14.80
2022-10-24T05:27:16.411Z,14.80
2022-10-24T05:29:44.391Z,14.80
2022-10-24T05:32:11.876Z,14.80
2022-10-24T05:34:39.789Z,14.80
2022-10-24T05:37:07.504Z,14.80
2022-10-24T05:39:36.255Z,14.80
2022-10-24T05:42:04.846Z,14.80
2022-10-24T05:44:32.987Z,14.80
2022-10-24T05:47:00.715Z,14.80
2022-10-24T05:49:28.330Z,14.80
2022-10-24T05:51:56.001Z,14.80
2022-10-24T05:54:23.504Z,14.80
2022-10-24T05:56:51.272Z,14.70
2022-10-24T05:59:18.984Z,14.80
2022-10-24T06:01:46.751Z,14.80
2022-10-24T06:04:18.008Z,14.80
2022-10-24T06:06:46.190Z,14.80
2022-10-24T06:09:17.713Z,14.80
2022-10-24T06:11:45.682Z,14.80
2022-10-24T06:14:20.262Z,14.80
2022-10-24T06:16:48.497Z,14.80
2022-10-24T06:19:16.577Z,14.80
2022-10-24T06:21:44.952Z,14.80
2022-10-24T06:24:12.683Z,14.80
2022-10-24T06:26:41.501Z,14.80
2022-10-24T06:29:09.790Z,14.80
2022-10-24T06:31:43.975Z,14.80
2022-10-24T06:34:12.452Z,14.80
2022-10-24T06:39:09.171Z,14.80
2022-10-24T06:41:38.836Z,14.90
2022-10-24T06:44:15.630Z,14.90
2022-10-24T06:46:43.323Z,14.90
2022-10-24T06:49:13.277Z,14.90
2022-10-24T06:51:42.879Z,15.00
2022-10-24T06:54:11.367Z,15.00
2022-10-24T06:56:39.389Z,15.00
2022-10-24T06:59:11.455Z,15.10
2022-10-24T07:01:39.509Z,15.10
2022-10-24T07:04:08.091Z,15.10
2022-10-24T07:06:35.745Z,15.20
2022-10-24T07:09:04.241Z,15.20
2022-10-24T07:11:35.951Z,15.30
2022-10-24T07:14:06.913Z,15.30
2022-10-24T07:16:36.789Z,15.30
2022-10-24T07:19:05.012Z,15.40
2022-10-24T07:21:33.322Z,15.40
2022-10-24T07:24:01.582Z,15.50
2022-10-24T07:26:29.981Z,15.60
2022-10-24T07:29:04.037Z,15.70
2022-10-24T07:31:34.051Z,15.80
2022-10-24T07:34:03.214Z,15.90
2022-10-24T07:36:31.128Z,16.00
2022-10-24T07:38:59.861Z,16.10
2022-10-24T07:41:30.461Z,16.30
2022-10-24T07:44:04.077Z,16.30
2022-10-24T07:46:35.863Z,16.30
2022-10-24T07:49:03.679Z,16.40
2022-10-24T07:51:33.059Z,16.40
2022-10-24T07:54:01.073Z,16.50
2022-10-24T07:56:29.209Z,16.50
2022-10-24T07:58:58.436Z,16.40
2022-10-24T08:01:27.152Z,16.40
2022-10-24T08:03:55.450Z,16.40
2022-10-24T08:06:30.327Z,16.40
2022-10-24T08:08:58.473Z,16.50
2022-10-24T08:11:29.083Z,16.50
2022-10-24T08:13:57.982Z,16.50
2022-10-24T08:16:26.328Z,16.60
2022-10-24T08:18:57.226Z,16.60
2022-10-24T08:21:26.985Z,16.60
2022-10-24T08:23:55.810Z,16.60
2022-10-24T08:26:25.034Z,16.60
2022-10-24T08:28:53.430Z,16.60
2022-10-24T08:31:22.621Z,16.60
2022-10-24T08:33:54.358Z,16.60
2022-10-24T08:36:24.199Z,16.60
2022-10-24T08:38:51.850Z,16.60
2022-10-24T08:41:25.552Z,16.60
2022-10-24T08:43:54.135Z,16.70
2022-10-24T08:46:29.035Z,16.70
2022-10-24T08:49:05.394Z,16.80
2022-10-24T08:51:46.382Z,16.80
2022-10-24T08:54:16.619Z,16.90
2022-10-24T08:56:44.846Z,17.00
2022-10-24T08:59:13.049Z,17.00
2022-10-24T09:01:52.342Z,17.10
2022-10-24T09:04:24.984Z,17.10
2022-10-24T09:06:54.253Z,17.20
2022-10-24T09:09:42.229Z,17.20
2022-10-24T09:12:13.451Z,17.20
2022-10-24T09:14:42.062Z,17.40
2022-10-24T09:17:14.135Z,17.40
2022-10-24T09:19:44.189Z,17.60
2022-10-24T09:22:11.936Z,17.60
2022-10-24T09:24:44.614Z,17.70
2022-10-24T09:27:18.019Z,17.90
2022-10-24T09:29:45.597Z,17.90
2022-10-24T09:32:18.625Z,17.90
2022-10-24T09:34:47.299Z,18.00
2022-10-24T09:37:36.522Z,18.00
2022-10-24T09:40:18.284Z,18.20
2022-10-24T09:43:02.087Z,18.30
2022-10-24T09:45:46.532Z,18.30
2022-10-24T09:48:27.540Z,18.50
2022-10-24T09:50:59.264Z,18.50
2022-10-24T09:53:30.656Z,18.50
2022-10-24T09:56:07.232Z,18.50
2022-10-24T09:58:35.874Z,18.50
2022-10-24T10:01:16.924Z,18.50
2022-10-24T10:04:01.273Z,18.50
2022-10-24T10:06:31.467Z,18.40
2022-10-24T10:08:59.826Z,18.50
2022-10-24T10:11:35.307Z,18.50
2022-10-24T10:14:24.230Z,18.60
2022-10-24T10:16:58.958Z,18.60
2022-10-24T10:19:26.492Z,18.70
2022-10-24T10:22:00.351Z,18.70
2022-10-24T10:24:40.215Z,18.80
2022-10-24T10:27:24.572Z,18.70
2022-10-24T10:30:17.179Z,18.70
2022-10-24T10:32:50.471Z,18.80
2022-10-24T10:35:37.981Z,18.80
2022-10-24T10:38:15.457Z,19.00
2022-10-24T10:40:50.800Z,19.00
2022-10-24T10:43:18.779Z,19.30
2022-10-24T10:45:46.788Z,19.90
2022-10-24T10:48:36.144Z,20.20
2022-10-24T10:51:12.241Z,20.40
2022-10-24T10:53:40.708Z,20.70
2022-10-24T10:56:12.084Z,20.40
2022-10-24T10:58:48.428Z,20.30
2022-10-24T11:01:16.163Z,20.50
2022-10-24T11:03:49.245Z,20.40
2022-10-24T11:06:20.356Z,20.70
2022-10-24T11:09:13.629Z,20.70
2022-10-24T11:12:05.730Z,20.90
2022-10-24T11:14:36.146Z,20.60
2022-10-24T11:17:11.777Z,20.60
2022-10-24T11:19:59.173Z,20.50
2022-10-24T11:22:34.438Z,20.50
2022-10-24T11:25:17.446Z,20.80
2022-10-24T11:27:49.914Z,20.60
2022-10-24T11:30:19.164Z,20.50
2022-10-24T11:32:55.465Z,20.50
2022-10-24T11:35:37.370Z,20.70
2022-10-24T11:38:13.191Z,21.30
2022-10-24T11:40:43.375Z,21.60
2022-10-24T11:43:28.874Z,21.00
2022-10-24T11:45:59.716Z,20.80
2022-10-24T11:48:30.533Z,21.10
2022-10-24T11:51:04.784Z,21.00
2022-10-24T11:53:32.852Z,21.10
2022-10-24T11:56:08.332Z,21.00
2022-10-24T11:58:39.667Z,21.00
2022-10-24T12:01:10.539Z,21.00
2022-10-24T12:04:08.040Z,21.20
2022-10-24T12:06:48.492Z,20.90
2022-10-24T12:09:33.626Z,21.30
2022-10-24T12:12:11.755Z,21.10
2022-10-24T12:14:52.294Z,22.10
2022-10-24T12:17:36.912Z,23.30
2022-10-24T12:20:07.295Z,23.80
2022-10-24T12:22:37.386Z,24.50
2022-10-24T12:25:35.943Z,23.50
2022-10-24T12:28:07.700Z,22.60
2022-10-24T12:30:36.767Z,22.70
2022-10-24T12:33:23.843Z,22.50
2022-10-24T12:35:53.135Z,22.20
2022-10-24T12:38:27.343Z,21.80
2022-10-24T12:40:58.801Z,21.60
2022-10-24T12:43:27.966Z,22.00
2022-10-24T12:46:00.325Z,22.20
2022-10-24T12:48:36.270Z,21.60
2022-10-24T12:51:05.503Z,21.10
2022-10-24T12:53:37.166Z,20.80
2022-10-24T12:56:07.833Z,21.10
2022-10-24T12:58:36.623Z,21.30
2022-10-24T13:01:25.398Z,21.30
2022-10-24T13:04:03.145Z,21.70
2022-10-24T13:06:49.271Z,22.20
2022-10-24T13:09:26.883Z,22.90
2022-10-24T13:12:13.333Z,23.30
2022-10-24T13:15:13.149Z,22.80
2022-10-24T13:17:44.955Z,22.70
2022-10-24T13:20:12.917Z,22.80
2022-10-24T13:22:48.561Z,22.10
2022-10-24T13:25:22.478Z,21.70
2022-10-24T13:28:11.572Z,21.80
2022-10-24T13:30:39.872Z,22.80
2022-10-24T13:33:30.868Z,22.70
2022-10-24T13:36:08.752Z,22.50
2022-10-24T13:38:41.899Z,22.60
2022-10-24T13:41:11.552Z,22.00
2022-10-24T13:43:43.370Z,21.40
2022-10-24T13:46:13.279Z,21.70
2022-10-24T13:48:46.748Z,22.40
2022-10-24T13:51:18.612Z,22.20
2022-10-24T13:53:50.354Z,21.60
2022-10-24T13:56:18.488Z,21.60
2022-10-24T13:58:46.201Z,21.70
2022-10-24T14:01:20.180Z,21.20
2022-10-24T14:03:50.499Z,20.80
2022-10-24T14:06:23.992Z,20.50
2022-10-24T14:09:05.449Z,20.70
2022-10-24T14:11:39.613Z,20.70
2022-10-24T14:14:13.998Z,20.70
2022-10-24T14:16:42.277Z,20.60
2022-10-24T14:19:13.642Z,20.60
2022-10-24T14:21:46.176Z,20.80
2022-10-24T14:24:15.721Z,21.00
2022-10-24T14:26:48.547Z,21.00
2022-10-24T14:29:22.770Z,20.80
2022-10-24T14:31:55.055Z,20.30
2022-10-24T14:34:22.999Z,19.90
2022-10-24T14:36:51.001Z,19.90
2022-10-24T14:39:23.970Z,20.20
2022-10-24T14:41:52.764Z,20.50
2022-10-24T14:44:24.804Z,20.50
2022-10-24T14:47:06.533Z,20.50
2022-10-24T14:49:37.674Z,20.70
2022-10-24T14:52:16.723Z,20.50
2022-10-24T14:54:52.420Z,20.20
2022-10-24T14:57:21.111Z,20.10
2022-10-24T14:59:53.766Z,20.20
2022-10-24T15:02:27.035Z,19.90
2022-10-24T15:05:13.125Z,20.00
2022-10-24T15:07:52.231Z,19.80
2022-10-24T15:10:36.299Z,19.50
2022-10-24T15:13:04.770Z,19.40
2022-10-24T15:15:35.464Z,19.50
2022-10-24T15:18:07.840Z,19.50
2022-10-24T15:20:37.088Z,19.60
2022-10-24T15:23:05.749Z,19.70
2022-10-24T15:25:36.801Z,19.60
2022-10-24T15:28:07.555Z,19.50
2022-10-24T15:30:37.007Z,19.20
2022-10-24T15:33:05.484Z,19.20
2022-10-24T15:35:38.204Z,19.10
2022-10-24T15:38:17.063Z,19.10
2022-10-24T15:40:45.996Z,19.00
2022-10-24T15:43:15.217Z,18.80
2022-10-24T15:45:43.062Z,18.80
2022-10-24T15:48:10.552Z,18.70
2022-10-24T15:50:42.574Z,18.60
2022-10-24T15:53:14.773Z,18.60
2022-10-24T15:55:42.388Z,18.50
2022-10-24T15:58:14.385Z,18.40
2022-10-24T16:00:42.034Z,18.40
2022-10-24T16:03:13.443Z,18.20
2022-10-24T16:05:42.989Z,18.20
2022-10-24T16:08:15.407Z,18.20
2022-10-24T16:10:43.731Z,18.10
2022-10-24T16:13:18.361Z,18.00
2022-10-24T16:15:46.397Z,18.00
2022-10-24T16:18:14.263Z,17.90
2022-10-24T16:20:42.586Z,17.90
2022-10-24T16:23:11.393Z,17.90
2022-10-24T16:25:42.815Z,17.80
2022-10-24T16:28:15.668Z,17.80
2022-10-24T16:30:43.370Z,17.70
2022-10-24T16:33:22.415Z,17.60
2022-10-24T16:35:51.060Z,17.60
2022-10-24T16:38:18.773Z,17.60
2022-10-24T16:40:47.745Z,17.50
2022-10-24T16:43:16.825Z,17.50
2022-10-24T16:45:59.846Z,17.50
2022-10-24T16:48:28.303Z,17.50
2022-10-24T16:50:55.825Z,17.40
2022-10-24T16:53:24.174Z,17.40
2022-10-24T16:55:54.694Z,17.40
2022-10-24T16:58:23.020Z,17.40
2022-10-24T17:00:50.856Z,17.40
2022-10-24T17:03:18.581Z,17.30
2022-10-24T17:05:49.435Z,17.30
2022-10-24T17:08:17.606Z,17.30
2022-10-24T17:10:45.126Z,17.20
2022-10-24T17:13:12.612Z,17.20
2022-10-24T17:15:40.207Z,17.20
2022-10-24T17:18:09.111Z,17.10
2022-10-24T17:20:43.845Z,17.20
2022-10-24T17:23:13.101Z,17.20
2022-10-24T17:25:41.498Z,17.20
2022-10-24T17:28:12.154Z,17.20
2022-10-24T17:30:39.985Z,17.20
2022-10-24T17:33:08.158Z,17.20
2022-10-24T17:35:36.962Z,17.20
2022-10-24T17:38:16.631Z,17.10
2022-10-24T17:40:47.646Z,17.20
2022-10-24T17:43:19.970Z,17.10
2022-10-24T17:45:49.124Z,17.10
2022-10-24T17:48:17.632Z,17.10
2022-10-24T17:50:46.979Z,17.10
2022-10-24T17:53:15.397Z,17.10
2022-10-24T17:55:46.760Z,17.00
2022-10-24T17:58:15.912Z,17.00
2022-10-24T18:00:47.183Z,17.00
2022-10-24T18:03:15.346Z,16.90
2022-10-24T18:05:42.912Z,16.90
2022-10-24T18:08:11.440Z,16.90
2022-10-24T18:10:39.687Z,16.90
2022-10-24T18:13:07.668Z,16.90
2022-10-24T18:15:35.776Z,16.80
2022-10-24T18:18:03.598Z,16.80
2022-10-24T18:20:32.249Z,16.90
2022-10-24T18:23:00.187Z,16.90
2022-10-24T18:25:28.790Z,16.90
2022-10-24T18:27:56.927Z,16.80
2022-10-24T18:30:24.652Z,16.70
2022-10-24T18:32:52.724Z,16.70
2022-10-24T18:35:22.543Z,16.70
2022-10-24T18:40:23.612Z,16.70
2022-10-24T18:42:57.815Z,16.60
2022-10-24T18:45:26.872Z,16.80
2022-10-24T18:47:56.004Z,16.70
2022-10-24T18:50:24.495Z,16.60
2022-10-24T18:53:03.322Z,16.60
2022-10-24T18:55:31.947Z,16.70
2022-10-24T18:57:59.646Z,16.60
2022-10-24T19:00:28.478Z,16.60
2022-10-24T19:02:59.403Z,16.60
2022-10-24T19:05:30.445Z,16.50
2022-10-24T19:07:57.987Z,16.60
2022-10-24T19:10:26.959Z,16.50
2022-10-24T19:12:55.212Z,16.50
2022-10-24T19:15:23.316Z,16.40
2022-10-24T19:17:51.830Z,16.50
2022-10-24T19:20:21.444Z,16.50
2022-10-24T19:22:49.413Z,16.40
2022-10-24T19:25:17.674Z,16.50
2022-10-24T19:27:45.888Z,16.60
2022-10-24T19:30:14.108Z,16.50
2022-10-24T19:32:42.073Z,16.50
2022-10-24T19:35:09.944Z,16.40
2022-10-24T19:37:37.808Z,16.40
2022-10-24T19:40:05.765Z,16.50
2022-10-24T19:42:34.833Z,16.40
2022-10-24T19:45:02.627Z,16.30
2022-10-24T19:47:30.131Z,16.30
2022-10-24T19:49:57.948Z,16.20
2022-10-24T19:52:26.530Z,16.20
2022-10-24T19:54:54.692Z,16.10
2022-10-24T19:58:01.117Z,16.10
2022-10-24T20:00:31.308Z,16.10
2022-10-24T20:02:59.790Z,16.00
2022-10-24T20:05:27.862Z,16.00
2022-10-24T20:07:55.488Z,15.90
2022-10-24T20:10:23.184Z,16.00
2022-10-24T20:12:50.770Z,16.00
2022-10-24T20:15:19.296Z,16.00
2022-10-24T20:17:46.853Z,15.90
2022-10-24T20:20:16.095Z,16.00
2022-10-24T20:22:44.366Z,15.90
2022-10-24T20:25:13.916Z,15.90
2022-10-24T20:27:41.859Z,15.90
2022-10-24T20:30:09.761Z,15.90
2022-10-24T20:32:37.329Z,15.90
2022-10-24T20:35:06.611Z,15.80
2022-10-24T20:37:34.056Z,15.80
2022-10-24T20:40:02.046Z,15.80
2022-10-24T20:42:30.129Z,15.80
2022-10-24T20:44:58.440Z,15.80
2022-10-24T20:47:28.465Z,15.90
2022-10-24T20:49:56.260Z,15.90
2022-10-24T20:52:27.177Z,16.00
2022-10-24T20:54:58.165Z,16.00
2022-10-24T20:57:26.391Z,16.00
2022-10-24T20:59:53.901Z,15.90
2022-10-24T21:02:25.926Z,15.90
2022-10-24T21:04:53.793Z,15.90
2022-10-24T21:07:21.673Z,15.80
2022-10-24T21:09:50.060Z,15.90
2022-10-24T21:12:18.045Z,15.80
2022-10-24T21:14:45.802Z,15.80
2022-10-24T21:17:13.882Z,15.70
2022-10-24T21:19:49.898Z,15.80
2022-10-24T21:22:17.352Z,15.80
2022-10-24T21:24:44.828Z,15.70
2022-10-24T21:27:12.302Z,15.70
2022-10-24T21:29:39.926Z,15.70
2022-10-24T21:32:07.874Z,15.70
2022-10-24T21:34:36.098Z,15.70
2022-10-24T21:37:04.785Z,15.70
2022-10-24T21:39:32.658Z,15.70
2022-10-24T21:42:00.141Z,15.70
2022-10-24T21:44:27.724Z,15.70
2022-10-24T21:46:55.834Z,15.60
2022-10-24T21:49:25.694Z,15.60
2022-10-24T21:51:55.062Z,15.60
2022-10-24T21:54:23.606Z,15.60
2022-10-24T21:56:51.442Z,15.60
2022-10-24T21:59:19.712Z,15.60
2022-10-24T22:01:47.694Z,15.60
2022-10-24T22:04:16.093Z,15.60
2022-10-24T22:06:43.709Z,15.50
2022-10-24T22:09:20.373Z,15.50
2022-10-24T22:11:49.834Z,15.50
2022-10-24T22:14:17.723Z,15.50
2022-10-24T22:16:45.448Z,15.40
2022-10-24T22:19:13.327Z,15.40
2022-10-24T22:21:48.935Z,15.30
2022-10-24T22:24:18.624Z,15.20
2022-10-24T22:26:46.816Z,15.30
2022-10-24T22:29:16.410Z,15.20
2022-10-24T22:31:44.276Z,15.10
2022-10-24T22:34:15.650Z,15.10
2022-10-24T22:37:12.766Z,15.10
2022-10-24T22:39:41.056Z,15.00
2022-10-24T22:42:14.668Z,14.90
2022-10-24T22:44:45.564Z,14.70
2022-10-24T22:47:37.878Z,14.50
2022-10-24T22:50:12.430Z,14.40
2022-10-24T22:52:40.407Z,14.30
2022-10-24T22:55:31.517Z,14.20
2022-10-24T22:57:59.711Z,14.10
2022-10-24T23:00:27.451Z,14.00
2022-10-24T23:03:04.269Z,14.00
2022-10-24T23:06:05.319Z,14.00
2022-10-24T23:08:38.711Z,14.00
2022-10-24T23:11:06.913Z,14.10
2022-10-24T23:13:39.010Z,14.00
2022-10-24T23:16:09.761Z,14.00
2022-10-24T23:18:37.321Z,13.90
2022-10-24T23:21:11.453Z,13.90
2022-10-24T23:23:45.182Z,13.80
2022-10-24T23:26:19.207Z,13.80
2022-10-24T23:28:50.405Z,13.70
2022-10-24T23:31:18.806Z,13.60
2022-10-24T23:33:46.805Z,13.60
2022-10-24T23:36:19.841Z,13.60
2022-10-24T23:38:47.907Z,13.70
2022-10-24T23:41:15.675Z,13.80
2022-10-24T23:43:43.186Z,13.90
2022-10-24T23:46:36.429Z,14.00
2022-10-24T23:49:10.965Z,13.90
2022-10-24T23:52:03.117Z,13.80
2022-10-24T23:54:32.126Z,13.80
2022-10-24T23:57:00.509Z,13.70
2022-10-24T23:59:32.433Z,13.60
